Time;durP1;ratioP1;P1;durP2;ratioP2;P2;SDS_P1;SDS_P2;PMS_P1;PMS_P2;Temp;Humidity;BMP_temperature;BMP_pressure;BME280_temperature;BME280_humidity;BME280_pressure;Samples;Min_cycle;Max_cycle;Signal;HPM_P1;HPM_P2
2023/04/10 00:00:02;;;;;;;46.50;38.60;;;7.20;99.90;;;;;;5057117;28;20677;-39
2023/04/10 00:02:28;;;;;;;49.95;39.40;;;7.10;99.90;;;;;;5057393;28;20075;-42
2023/04/10 00:04:54;;;;;;;51.75;40.40;;;7.10;99.90;;;;;;5044152;28;20045;-42
2023/04/10 00:07:20;;;;;;;47.88;39.75;;;7.00;99.90;;;;;;5056392;28;20545;-41
2023/04/10 00:09:45;;;;;;;48.22;39.97;;;6.90;99.90;;;;;;5038236;28;20056;-40
2023/04/10 00:12:11;;;;;;;49.53;40.20;;;6.90;99.90;;;;;;5040041;28;20046;-38
2023/04/10 00:14:37;;;;;;;49.50;40.63;;;6.90;99.90;;;;;;5040587;28;20048;-40
2023/04/10 00:17:02;;;;;;;49.90;41.22;;;6.80;99.90;;;;;;5056191;28;20052;-46
2023/04/10 00:19:28;;;;;;;47.88;39.33;;;6.80;99.90;;;;;;5057172;28;20048;-46
2023/04/10 00:21:55;;;;;;;51.70;41.75;;;6.80;99.90;;;;;;5056691;28;20044;-39
2023/04/10 00:24:21;;;;;;;54.38;43.88;;;6.70;99.90;;;;;;5056507;28;20437;-42
2023/04/10 00:26:46;;;;;;;50.90;41.75;;;6.70;99.90;;;;;;5056758;28;20048;-35
2023/04/10 00:29:12;;;;;;;55.47;43.03;;;6.60;99.90;;;;;;5056478;28;20501;-38
2023/04/10 00:31:38;;;;;;;55.35;42.38;;;6.60;99.90;;;;;;5056704;28;20150;-44
2023/04/10 00:34:03;;;;;;;56.75;45.33;;;6.60;99.90;;;;;;5064433;28;20253;-42
2023/04/10 00:36:30;;;;;;;57.30;43.90;;;6.50;99.90;;;;;;5021862;28;20064;-45
2023/04/10 00:38:56;;;;;;;54.97;43.42;;;6.50;99.90;;;;;;5055952;28;20051;-44
2023/04/10 00:41:22;;;;;;;54.53;44.08;;;6.50;99.90;;;;;;5056637;28;20044;-40
2023/04/10 00:43:48;;;;;;;53.28;44.30;;;6.50;99.90;;;;;;5038907;28;20068;-41
2023/04/10 00:46:14;;;;;;;59.83;46.65;;;6.50;99.90;;;;;;5050340;28;20049;-40
2023/04/10 00:48:40;;;;;;;59.30;47.22;;;6.40;99.90;;;;;;5039057;28;20060;-42
2023/04/10 00:51:06;;;;;;;58.60;46.38;;;6.40;99.90;;;;;;5055691;28;20040;-41
2023/04/10 00:53:32;;;;;;;54.63;44.58;;;6.40;99.90;;;;;;5037500;28;20114;-38
2023/04/10 00:55:59;;;;;;;58.20;47.35;;;6.40;99.90;;;;;;5055850;28;20404;-46
2023/04/10 00:58:25;;;;;;;59.65;46.30;;;6.40;99.90;;;;;;5035720;28;20483;-38
2023/04/10 01:00:51;;;;;;;57.22;45.65;;;6.40;99.90;;;;;;5056173;28;20052;-42
2023/04/10 01:03:19;;;;;;;57.03;46.38;;;6.40;99.90;;;;;;5043123;28;20049;-37
2023/04/10 01:05:56;;;;;;;58.72;46.75;;;6.40;99.90;;;;;;5049262;28;20084;-38
2023/04/10 01:08:21;;;;;;;58.92;47.00;;;6.40;99.90;;;;;;5050400;28;20044;-44
2023/04/10 01:11:05;;;;;;;60.15;47.05;;;6.40;99.90;;;;;;5056393;28;20068;-42
2023/04/10 01:13:39;;;;;;;59.70;47.35;;;6.40;99.90;;;;;;5055619;28;20157;-51
2023/04/10 01:16:09;;;;;;;;;;;6.40;99.90;;;;;;5046904;28;20049;-39
2023/04/10 01:18:47;;;;;;;54.85;43.70;;;6.40;99.90;;;;;;5054179;28;19964;-39
2023/04/10 01:21:15;;;;;;;58.50;47.45;;;6.40;99.90;;;;;;5054710;28;20110;-44
2023/04/10 01:23:46;;;;;;;58.20;45.60;;;6.40;99.90;;;;;;5049157;28;20293;-41
2023/04/10 01:26:18;;;;;;;59.65;46.75;;;6.30;99.90;;;;;;5049545;28;20091;-43
2023/04/10 01:29:10;;;;;;;60.28;47.00;;;6.40;99.90;;;;;;5043151;28;20044;-40
2023/04/10 01:32:05;;;;;;;58.25;46.20;;;6.30;99.90;;;;;;5055798;28;20059;-42
2023/04/10 01:34:53;;;;;;;59.58;45.97;;;6.30;99.90;;;;;;5026885;28;20057;-45
2023/04/10 01:37:30;;;;;;;58.67;47.58;;;6.30;99.90;;;;;;5056005;28;20523;-43
2023/04/10 01:40:01;;;;;;;59.08;46.90;;;6.30;99.90;;;;;;5026731;28;20088;-39
2023/04/10 01:42:34;;;;;;;62.72;48.33;;;6.30;99.90;;;;;;5043731;28;20053;-44
2023/04/10 01:45:02;;;;;;;59.03;46.67;;;6.20;99.90;;;;;;5056159;28;20045;-40
2023/04/10 01:47:29;;;;;;;53.47;45.53;;;6.10;99.90;;;;;;5033117;28;20117;-47
2023/04/10 01:49:56;;;;;;;58.97;45.53;;;6.10;99.90;;;;;;5044908;28;20102;-44
2023/04/10 01:52:22;;;;;;;59.20;46.58;;;6.10;99.90;;;;;;5041966;28;20059;-41
2023/04/10 01:54:48;;;;;;;60.67;46.63;;;6.10;99.90;;;;;;5046456;28;20057;-42
2023/04/10 01:57:15;;;;;;;57.63;47.10;;;6.10;99.90;;;;;;5036713;28;20060;-40
2023/04/10 01:59:41;;;;;;;56.88;46.00;;;6.10;99.90;;;;;;5045243;28;20048;-36
2023/04/10 02:02:10;;;;;;;60.50;47.03;;;6.00;99.90;;;;;;5022988;28;20114;-41
2023/04/10 02:04:36;;;;;;;59.60;46.92;;;6.10;99.90;;;;;;5035667;28;20097;-36
2023/04/10 02:07:19;;;;;;;58.22;46.35;;;6.00;99.90;;;;;;5052629;28;20048;-36
2023/04/10 02:09:45;;;;;;;60.80;47.20;;;6.00;99.90;;;;;;5036758;28;20103;-43
2023/04/10 02:12:17;;;;;;;56.63;45.67;;;6.00;99.90;;;;;;5055417;28;20502;-38
2023/04/10 02:14:46;;;;;;;59.75;46.70;;;6.00;99.90;;;;;;5036677;28;20911;-47
2023/04/10 02:17:16;;;;;;;52.97;44.40;;;6.00;99.90;;;;;;5035747;28;20391;-44
2023/04/10 02:19:44;;;;;;;56.97;46.95;;;6.00;99.90;;;;;;5054833;28;20479;-45
2023/04/10 02:22:10;;;;;;;60.08;46.53;;;5.90;99.90;;;;;;5055089;28;20462;-42
2023/04/10 02:24:36;;;;;;;58.75;45.80;;;6.00;99.90;;;;;;5055462;28;20098;-36
2023/04/10 02:27:02;;;;;;;57.78;46.38;;;6.00;99.90;;;;;;5054242;28;20048;-35
2023/04/10 02:29:28;;;;;;;59.17;47.85;;;5.90;99.90;;;;;;5053926;28;20543;-41
2023/04/10 02:31:54;;;;;;;55.80;47.25;;;5.90;99.90;;;;;;5038612;28;20056;-42
2023/04/10 02:34:20;;;;;;;57.38;46.53;;;5.90;99.90;;;;;;5058761;28;20388;-46
2023/04/10 02:36:46;;;;;;;58.03;47.67;;;5.90;99.90;;;;;;5036102;28;20067;-42
2023/04/10 02:39:11;;;;;;;57.53;46.63;;;5.90;99.90;;;;;;5053783;28;20128;-46
2023/04/10 02:41:37;;;;;;;55.72;45.00;;;5.90;99.90;;;;;;5054671;28;20541;-42
2023/04/10 02:44:03;;;;;;;56.47;47.85;;;5.90;99.90;;;;;;5040136;28;20642;-40
2023/04/10 02:46:29;;;;;;;55.30;46.47;;;5.90;99.90;;;;;;5045218;28;20550;-46
2023/04/10 02:48:55;;;;;;;56.30;46.25;;;5.90;99.90;;;;;;5049836;28;20407;-47
2023/04/10 02:51:20;;;;;;;61.70;47.30;;;5.90;99.90;;;;;;5055139;28;20098;-47
2023/04/10 02:53:47;;;;;;;57.72;45.20;;;5.90;99.90;;;;;;5055016;28;20135;-36
2023/04/10 02:56:12;;;;;;;55.67;44.97;;;6.00;99.90;;;;;;5054233;28;20091;-39
2023/04/10 02:58:38;;;;;;;55.85;46.17;;;6.00;99.90;;;;;;5052912;28;20052;-46
2023/04/10 03:01:08;;;;;;;55.67;46.47;;;6.00;99.90;;;;;;5054004;28;20477;-44
2023/04/10 03:03:34;;;;;;;58.85;48.88;;;6.00;99.90;;;;;;5054032;28;20056;-45
2023/04/10 03:05:59;;;;;;;56.95;47.13;;;6.00;99.90;;;;;;5054176;28;20114;-42
2023/04/10 03:08:25;;;;;;;53.80;46.40;;;6.00;99.90;;;;;;5034781;28;20477;-42
2023/04/10 03:10:51;;;;;;;59.10;47.00;;;5.90;99.90;;;;;;5054346;28;20044;-44
2023/04/10 03:13:16;;;;;;;56.67;47.00;;;5.90;99.90;;;;;;5040469;28;20391;-36
2023/04/10 03:15:42;;;;;;;57.10;46.85;;;5.90;99.90;;;;;;5054361;28;20373;-43
2023/04/10 03:18:10;;;;;;;59.75;47.28;;;5.90;99.90;;;;;;5053375;28;20478;-35
2023/04/10 03:20:37;;;;;;;58.28;47.30;;;5.90;99.90;;;;;;5054410;28;20040;-43
2023/04/10 03:23:04;;;;;;;54.65;46.13;;;5.80;99.90;;;;;;5044284;28;20485;-40
2023/04/10 03:25:32;;;;;;;58.10;47.53;;;5.80;99.90;;;;;;5037301;28;20056;-39
2023/04/10 03:27:58;;;;;;;57.63;47.30;;;5.80;99.90;;;;;;5037800;28;20425;-44
2023/04/10 03:30:23;;;;;;;57.33;47.42;;;5.80;99.90;;;;;;5058430;28;20040;-38
2023/04/10 03:32:49;;;;;;;58.15;47.08;;;5.70;99.90;;;;;;5065627;28;20044;-45
2023/04/10 03:35:15;;;;;;;56.75;46.42;;;5.70;99.90;;;;;;5057954;28;20498;-41
2023/04/10 03:37:41;;;;;;;57.88;47.70;;;5.70;99.90;;;;;;5056951;28;20062;-45
2023/04/10 03:40:08;;;;;;;55.30;45.53;;;5.60;99.90;;;;;;5039918;28;20055;-39
2023/04/10 03:42:34;;;;;;;55.90;45.45;;;5.60;99.90;;;;;;5057165;28;20499;-39
2023/04/10 03:45:03;;;;;;;55.38;47.30;;;5.70;99.90;;;;;;5040006;28;20131;-45
2023/04/10 03:47:32;;;;;;;55.80;45.22;;;5.80;99.90;;;;;;5038258;28;20920;-44
2023/04/10 03:49:58;;;;;;;57.05;45.70;;;5.90;99.90;;;;;;5055600;28;20908;-41
2023/04/10 03:52:24;;;;;;;56.78;47.38;;;5.90;99.90;;;;;;5043802;28;20067;-41
2023/04/10 03:54:51;;;;;;;61.00;48.08;;;6.00;99.90;;;;;;5057356;28;20044;-47
2023/04/10 03:57:18;;;;;;;57.42;47.83;;;6.00;99.90;;;;;;5038446;28;20059;-38
2023/04/10 03:59:43;;;;;;;55.75;45.95;;;6.00;99.90;;;;;;5057968;28;20048;-47
2023/04/10 04:02:09;;;;;;;54.20;44.45;;;6.10;99.90;;;;;;5056875;28;20159;-39
2023/04/10 04:04:35;;;;;;;53.60;43.70;;;6.10;99.90;;;;;;5044191;28;20489;-45
2023/04/10 04:07:01;;;;;;;53.80;45.78;;;6.10;99.90;;;;;;5052983;28;20613;-36
2023/04/10 04:09:26;;;;;;;54.28;44.42;;;6.20;99.90;;;;;;5055390;28;20097;-41
2023/04/10 04:11:52;;;;;;;54.22;44.45;;;6.20;99.90;;;;;;5038482;28;20056;-36
2023/04/10 04:14:18;;;;;;;53.75;43.60;;;6.20;99.90;;;;;;5057309;28;20044;-39
2023/04/10 04:16:43;;;;;;;50.75;43.35;;;6.20;99.90;;;;;;5056060;28;20144;-45
2023/04/10 04:19:09;;;;;;;56.30;44.85;;;6.20;99.90;;;;;;5046557;28;20059;-40
2023/04/10 04:21:35;;;;;;;49.10;41.38;;;6.20;99.90;;;;;;5052741;28;20937;-47
2023/04/10 04:24:00;;;;;;;51.05;42.97;;;6.20;99.90;;;;;;5056217;28;20058;-40
2023/04/10 04:26:26;;;;;;;49.10;41.03;;;6.20;99.90;;;;;;5037522;28;20095;-39
2023/04/10 04:28:52;;;;;;;53.35;42.65;;;6.20;99.90;;;;;;5055452;28;20056;-45
2023/04/10 04:31:17;;;;;;;46.08;40.40;;;6.20;99.90;;;;;;5056780;28;20462;-38
2023/04/10 04:33:43;;;;;;;51.75;40.53;;;6.20;99.90;;;;;;5063338;28;20158;-41
2023/04/10 04:36:08;;;;;;;47.88;37.60;;;6.30;99.90;;;;;;5055556;28;20051;-43
2023/04/10 04:38:34;;;;;;;43.47;35.83;;;6.20;99.90;;;;;;5055468;28;20044;-42
2023/04/10 04:41:00;;;;;;;44.25;35.70;;;6.20;99.90;;;;;;5052085;28;20056;-41
2023/04/10 04:43:25;;;;;;;45.05;36.95;;;6.20;99.90;;;;;;5047073;28;20044;-41
2023/04/10 04:45:51;;;;;;;43.35;36.67;;;6.20;99.90;;;;;;5038199;28;20068;-43
2023/04/10 04:48:16;;;;;;;44.83;36.70;;;6.20;99.90;;;;;;5055334;28;20102;-45
2023/04/10 04:50:42;;;;;;;42.05;33.92;;;6.20;99.90;;;;;;5055792;28;20071;-43
2023/04/10 04:53:08;;;;;;;40.42;33.72;;;6.20;99.90;;;;;;5056442;28;20048;-42
2023/04/10 04:55:34;;;;;;;41.40;35.00;;;6.20;99.90;;;;;;5043007;28;20044;-44
2023/04/10 04:58:00;;;;;;;43.55;33.30;;;6.20;99.90;;;;;;5055303;28;20059;-45
2023/04/10 05:00:25;;;;;;;46.58;35.45;;;6.20;99.90;;;;;;5056047;28;20083;-42
2023/04/10 05:02:51;;;;;;;41.63;32.97;;;6.20;99.90;;;;;;5055860;28;20041;-39
2023/04/10 05:05:17;;;;;;;42.25;33.15;;;6.30;99.90;;;;;;5055840;28;20051;-45
2023/04/10 05:07:42;;;;;;;38.90;31.92;;;6.30;99.90;;;;;;5054476;28;20052;-37
2023/04/10 05:10:08;;;;;;;38.40;31.83;;;6.30;99.90;;;;;;5055656;28;20051;-42
2023/04/10 05:12:34;;;;;;;37.50;30.48;;;6.40;99.90;;;;;;5056205;28;20044;-35
2023/04/10 05:15:00;;;;;;;37.72;30.33;;;6.40;99.90;;;;;;5055955;28;20048;-44
2023/04/10 05:17:25;;;;;;;38.05;30.60;;;6.40;99.90;;;;;;5054689;28;20044;-41
2023/04/10 05:19:51;;;;;;;35.42;28.77;;;6.40;99.90;;;;;;5042281;28;20123;-44
2023/04/10 05:22:17;;;;;;;38.03;30.58;;;6.40;99.90;;;;;;5055674;28;20044;-38
2023/04/10 05:24:42;;;;;;;34.25;28.67;;;6.50;99.90;;;;;;5035681;28;20086;-43
2023/04/10 05:27:08;;;;;;;33.85;27.70;;;6.60;99.90;;;;;;5055176;28;20135;-45
2023/04/10 05:29:34;;;;;;;37.13;28.98;;;6.60;99.90;;;;;;5037397;28;20045;-38
2023/04/10 05:32:00;;;;;;;34.08;27.58;;;6.70;99.90;;;;;;5058224;28;20044;-42
2023/04/10 05:34:25;;;;;;;35.50;28.33;;;6.80;99.90;;;;;;5040627;28;20056;-38
2023/04/10 05:36:51;;;;;;;32.22;27.60;;;6.90;99.90;;;;;;5054250;28;20102;-42
2023/04/10 05:39:17;;;;;;;34.80;28.05;;;7.00;99.90;;;;;;5037122;28;20052;-41
2023/04/10 05:41:42;;;;;;;31.35;25.17;;;7.10;99.90;;;;;;5056535;28;20554;-44
2023/04/10 05:44:08;;;;;;;30.15;24.48;;;7.30;99.90;;;;;;5055285;28;20158;-45
2023/04/10 05:46:34;;;;;;;29.50;24.25;;;7.40;99.90;;;;;;5054648;28;20094;-41
2023/04/10 05:48:59;;;;;;;26.73;23.67;;;7.60;99.90;;;;;;5050760;28;20043;-35
2023/04/10 05:51:26;;;;;;;28.30;22.92;;;7.70;99.90;;;;;;5055288;28;20499;-43
2023/04/10 05:53:51;;;;;;;28.50;23.80;;;7.90;99.90;;;;;;5054903;28;20107;-42
2023/04/10 05:56:17;;;;;;;26.20;22.50;;;8.10;99.90;;;;;;5054843;28;20735;-35
2023/04/10 05:58:43;;;;;;;26.08;23.25;;;8.30;99.90;;;;;;5054762;28;20091;-45
2023/04/10 06:01:08;;;;;;;26.58;22.02;;;8.60;99.90;;;;;;5037195;28;20059;-45
2023/04/10 06:03:34;;;;;;;26.98;20.80;;;9.10;99.90;;;;;;5055233;28;20084;-42
2023/04/10 06:06:03;;;;;;;23.33;20.55;;;9.70;99.90;;;;;;5055053;28;20062;-45
2023/04/10 06:08:29;;;;;;;26.98;20.42;;;10.10;99.90;;;;;;5054148;28;20051;-42
2023/04/10 06:10:55;;;;;;;22.75;20.08;;;10.20;99.90;;;;;;5055556;28;20040;-42
2023/04/10 06:13:20;;;;;;;24.10;21.50;;;10.30;99.90;;;;;;5055654;28;20048;-47
2023/04/10 06:15:46;;;;;;;21.70;19.38;;;10.40;99.90;;;;;;5055483;28;20048;-41
2023/04/10 06:18:12;;;;;;;20.95;18.75;;;10.60;99.90;;;;;;5033425;28;20067;-49
2023/04/10 06:20:38;;;;;;;22.65;19.23;;;10.80;99.90;;;;;;5045749;28;20044;-49
2023/04/10 06:23:05;;;;;;;21.60;19.08;;;10.90;99.90;;;;;;5054974;28;20053;-42
2023/04/10 06:25:30;;;;;;;24.73;18.65;;;11.30;99.90;;;;;;5034900;28;20131;-46
2023/04/10 06:27:56;;;;;;;22.25;19.95;;;11.80;99.90;;;;;;5049966;28;20058;-36
2023/04/10 06:30:22;;;;;;;20.90;18.20;;;12.30;99.90;;;;;;5055372;28;20051;-37
2023/04/10 06:32:47;;;;;;;20.63;18.52;;;12.90;99.90;;;;;;5062196;28;20149;-36
2023/04/10 06:35:13;;;;;;;21.15;18.95;;;13.60;99.90;;;;;;5055023;28;20072;-52
2023/04/10 06:37:39;;;;;;;20.90;18.73;;;14.10;99.90;;;;;;5054564;28;20128;-44
2023/04/10 06:40:09;;;;;;;19.83;17.88;;;13.60;99.90;;;;;;5033340;28;20048;-46
2023/04/10 06:42:35;;;;;;;20.48;17.73;;;13.00;99.90;;;;;;5051648;28;20049;-44
2023/04/10 06:45:02;;;;;;;20.05;18.00;;;13.00;99.90;;;;;;5055206;28;20060;-44
2023/04/10 06:47:28;;;;;;;21.48;18.30;;;13.10;99.90;;;;;;5053753;28;20586;-37
2023/04/10 06:49:54;;;;;;;18.90;17.00;;;13.20;99.90;;;;;;5054420;28;20048;-46
2023/04/10 06:52:20;;;;;;;20.48;17.30;;;13.80;99.90;;;;;;5051275;28;20048;-46
2023/04/10 06:54:45;;;;;;;20.83;18.63;;;14.00;99.90;;;;;;5036029;28;20091;-49
2023/04/10 06:57:11;;;;;;;19.88;17.88;;;13.90;99.90;;;;;;5052559;28;20059;-50
2023/04/10 06:59:37;;;;;;;19.27;17.27;;;13.70;99.90;;;;;;5055589;28;20052;-40
2023/04/10 07:02:03;;;;;;;18.83;16.83;;;13.70;99.90;;;;;;5054739;28;20044;-37
2023/04/10 07:04:30;;;;;;;19.00;17.00;;;13.80;99.90;;;;;;5036751;28;20052;-46
2023/04/10 07:06:55;;;;;;;18.48;16.58;;;13.90;99.90;;;;;;5039825;28;20051;-46
2023/04/10 07:09:21;;;;;;;18.67;16.67;;;13.90;99.90;;;;;;5036287;28;20049;-48
2023/04/10 07:11:47;;;;;;;19.48;17.38;;;14.10;99.90;;;;;;5054876;28;20048;-40
2023/04/10 07:14:12;;;;;;;18.55;16.40;;;13.90;99.90;;;;;;5055213;28;20159;-39
2023/04/10 07:16:38;;;;;;;18.48;16.20;;;14.00;99.90;;;;;;5054670;28;20636;-43
2023/04/10 07:19:04;;;;;;;18.52;16.30;;;13.80;99.90;;;;;;5044640;28;20338;-46
2023/04/10 07:21:31;;;;;;;18.48;16.50;;;13.70;99.90;;;;;;5033854;28;20597;-37
2023/04/10 07:23:57;;;;;;;18.65;16.65;;;13.80;99.90;;;;;;5036038;28;20059;-42
2023/04/10 07:26:24;;;;;;;18.05;16.15;;;13.80;99.90;;;;;;5034977;28;20442;-48
2023/04/10 07:28:50;;;;;;;19.55;16.80;;;13.80;99.90;;;;;;5051919;28;20119;-36
2023/04/10 07:31:16;;;;;;;17.65;15.85;;;13.90;99.90;;;;;;5053823;28;20044;-45
2023/04/10 07:33:43;;;;;;;18.20;16.33;;;14.00;99.90;;;;;;5040879;28;20044;-43
2023/04/10 07:36:09;;;;;;;16.83;15.13;;;14.10;99.90;;;;;;5039297;28;20040;-44
2023/04/10 07:38:35;;;;;;;18.08;16.27;;;14.20;99.90;;;;;;5043055;28;20786;-49
2023/04/10 07:41:01;;;;;;;17.92;16.13;;;14.00;99.90;;;;;;5040084;28;20333;-39
2023/04/10 07:43:26;;;;;;;18.25;16.35;;;13.80;99.90;;;;;;5040147;28;20055;-46
2023/04/10 07:45:52;;;;;;;18.33;16.33;;;13.90;99.90;;;;;;5050518;28;20118;-40
2023/04/10 07:48:18;;;;;;;17.02;15.25;;;13.70;99.90;;;;;;5052510;28;20501;-43
2023/04/10 07:50:43;;;;;;;17.38;15.60;;;13.60;99.90;;;;;;5053905;28;20072;-44
2023/04/10 07:53:09;;;;;;;17.90;14.88;;;13.30;99.90;;;;;;5054442;28;20045;-46
2023/04/10 07:55:39;;;;;;;17.33;15.55;;;13.20;99.90;;;;;;5053893;28;20088;-41
2023/04/10 07:58:05;;;;;;;17.42;15.70;;;13.10;99.90;;;;;;5052797;28;20044;-43
2023/04/10 08:00:31;;;;;;;17.27;15.13;;;13.30;99.90;;;;;;5054075;28;20074;-43
2023/04/10 08:02:57;;;;;;;16.15;14.55;;;13.30;99.90;;;;;;5035740;28;20106;-50
2023/04/10 08:05:23;;;;;;;17.17;15.48;;;13.30;99.90;;;;;;5054559;28;20383;-42
2023/04/10 08:07:48;;;;;;;15.90;14.27;;;13.40;99.90;;;;;;5054521;28;20049;-41
2023/04/10 08:10:14;;;;;;;16.92;15.10;;;13.40;99.90;;;;;;5057005;28;20469;-41
2023/04/10 08:12:40;;;;;;;16.60;14.90;;;13.40;99.90;;;;;;5048793;28;20414;-42
2023/04/10 08:15:06;;;;;;;17.20;15.50;;;13.50;99.90;;;;;;5053944;28;20123;-42
2023/04/10 08:17:32;;;;;;;18.67;16.88;;;13.40;99.90;;;;;;5055870;28;20083;-51
2023/04/10 08:19:57;;;;;;;16.98;15.20;;;13.50;99.90;;;;;;5057296;28;20156;-42
2023/04/10 08:22:23;;;;;;;17.23;15.48;;;13.50;99.90;;;;;;5058335;28;20044;-49
2023/04/10 08:24:49;;;;;;;17.33;15.63;;;13.60;99.90;;;;;;5057994;28;20405;-38
2023/04/10 08:27:15;;;;;;;16.50;14.88;;;13.50;99.90;;;;;;5055498;28;20485;-46
2023/04/10 08:29:44;;;;;;;16.52;14.82;;;13.60;99.90;;;;;;5054146;28;20045;-50
2023/04/10 08:32:09;;;;;;;17.55;15.63;;;13.60;99.90;;;;;;5052787;28;20040;-45
2023/04/10 08:34:35;;;;;;;16.92;15.25;;;13.40;99.90;;;;;;5046446;28;20044;-41
2023/04/10 08:37:05;;;;;;;17.48;15.68;;;13.50;99.90;;;;;;5043126;28;20114;-42
2023/04/10 08:39:30;;;;;;;16.35;14.73;;;13.30;99.90;;;;;;5047032;28;20475;-46
2023/04/10 08:41:56;;;;;;;15.85;14.25;;;13.30;99.90;;;;;;5052598;28;20147;-39
2023/04/10 08:44:22;;;;;;;17.27;15.48;;;13.60;99.90;;;;;;5055870;28;20498;-43
2023/04/10 08:46:49;;;;;;;15.80;14.23;;;13.80;99.90;;;;;;5034628;28;20064;-45
2023/04/10 08:49:22;;;;;;;16.38;14.77;;;13.90;99.90;;;;;;5048962;28;20117;-47
2023/04/10 08:51:58;;;;;;;15.20;13.73;;;14.00;99.90;;;;;;5020690;28;20052;-43
2023/04/10 08:54:34;;;;;;;16.35;14.65;;;14.00;99.90;;;;;;5037999;28;20072;-48
2023/04/10 08:57:00;;;;;;;16.95;15.25;;;13.90;99.90;;;;;;5037167;28;20048;-37
2023/04/10 08:59:33;;;;;;;18.02;14.35;;;13.80;99.90;;;;;;5041213;28;20068;-41
2023/04/10 09:01:59;;;;;;;15.10;13.57;;;13.90;99.90;;;;;;5051201;28;20049;-48
2023/04/10 09:04:26;;;;;;;16.10;13.07;;;13.90;99.90;;;;;;5051292;28;20041;-41
2023/04/10 09:06:52;;;;;;;15.30;13.77;;;13.80;99.90;;;;;;5067205;22;20044;-40
2023/04/10 09:09:18;;;;;;;14.90;13.38;;;13.80;99.90;;;;;;5056682;28;20528;-43
2023/04/10 09:11:55;;;;;;;14.38;12.95;;;13.80;99.90;;;;;;5057735;28;20044;-48
2023/04/10 09:14:31;;;;;;;15.05;13.50;;;13.90;99.90;;;;;;5077462;28;20055;-48
2023/04/10 09:17:13;;;;;;;16.10;14.50;;;13.90;99.90;;;;;;5067075;28;20099;-41
2023/04/10 09:19:40;;;;;;;15.98;14.35;;;14.00;99.90;;;;;;5037824;28;20098;-46
2023/04/10 09:22:05;;;;;;;16.08;12.90;;;14.00;99.90;;;;;;5064531;28;20048;-47
2023/04/10 09:24:37;;;;;;;15.00;13.45;;;13.90;99.90;;;;;;5076323;28;20309;-40
2023/04/10 09:27:03;;;;;;;14.48;12.77;;;13.90;99.90;;;;;;5074908;28;20101;-39
2023/04/10 09:29:40;;;;;;;13.93;12.52;;;13.90;99.90;;;;;;5057991;28;20593;-41
2023/04/10 09:32:06;;;;;;;14.07;12.68;;;13.90;99.90;;;;;;5064271;28;20051;-40
2023/04/10 09:34:31;;;;;;;13.65;12.15;;;13.90;99.90;;;;;;5058401;28;20857;-40
2023/04/10 09:37:00;;;;;;;13.15;11.85;;;13.90;99.90;;;;;;5036729;28;20059;-42
2023/04/10 09:39:52;;;;;;;14.80;13.23;;;13.90;99.90;;;;;;5056263;28;20516;-45
2023/04/10 09:42:32;;;;;;;13.52;12.23;;;14.10;99.90;;;;;;5050722;28;20468;-39
2023/04/10 09:44:58;;;;;;;13.77;12.27;;;14.20;99.90;;;;;;5055228;28;20105;-42
2023/04/10 09:47:24;;;;;;;14.23;12.70;;;14.40;99.90;;;;;;5053826;28;20090;-39
2023/04/10 09:49:59;;;;;;;15.55;12.65;;;14.30;99.90;;;;;;5055508;28;20127;-46
2023/04/10 09:52:28;;;;;;;14.77;12.18;;;14.20;99.90;;;;;;5055127;28;20059;-40
2023/04/10 09:54:56;;;;;;;15.27;13.02;;;14.30;99.90;;;;;;5054948;28;20048;-41
2023/04/10 09:57:24;;;;;;;13.60;12.27;;;14.20;99.90;;;;;;5053867;28;20056;-47
2023/04/10 09:59:52;;;;;;;14.18;12.00;;;14.20;99.90;;;;;;5054960;28;20045;-42
2023/04/10 10:02:20;;;;;;;12.73;11.25;;;14.10;99.90;;;;;;5055343;28;20055;-37
2023/04/10 10:04:47;;;;;;;13.50;12.10;;;14.00;99.90;;;;;;5055675;28;20048;-42
2023/04/10 10:07:15;;;;;;;15.13;13.02;;;14.00;99.90;;;;;;5053653;28;20040;-39
2023/04/10 10:09:45;;;;;;;15.82;13.63;;;13.90;99.90;;;;;;5055028;28;20044;-45
2023/04/10 10:12:14;;;;;;;14.82;13.30;;;13.90;99.90;;;;;;5062131;28;20239;-45
2023/04/10 10:15:01;;;;;;;13.05;11.43;;;13.90;99.90;;;;;;5076504;28;20474;-43
2023/04/10 10:17:33;;;;;;;14.18;12.77;;;14.10;99.90;;;;;;5046580;28;20067;-36
2023/04/10 10:20:19;;;;;;;14.60;13.05;;;13.90;99.90;;;;;;5054745;28;20543;-39
2023/04/10 10:22:45;;;;;;;15.40;12.63;;;13.90;99.90;;;;;;5053565;28;20040;-50
2023/04/10 10:25:12;;;;;;;13.60;12.02;;;13.80;99.90;;;;;;5054503;28;20052;-50
2023/04/10 10:27:40;;;;;;;13.38;12.05;;;13.80;99.90;;;;;;5052918;28;20064;-37
2023/04/10 10:30:08;;;;;;;13.10;11.70;;;13.80;99.90;;;;;;5061575;28;20525;-43
2023/04/10 10:32:35;;;;;;;14.55;12.95;;;13.80;99.90;;;;;;5049591;28;20521;-46
2023/04/10 10:35:02;;;;;;;14.23;12.60;;;13.90;99.90;;;;;;5053771;28;20147;-50
2023/04/10 10:37:29;;;;;;;14.43;12.75;;;14.00;99.90;;;;;;5052929;28;20403;-37
2023/04/10 10:40:28;;;;;;;13.55;12.20;;;14.00;99.90;;;;;;5036740;28;20461;-43
2023/04/10 10:43:15;;;;;;;13.20;11.85;;;14.10;99.90;;;;;;4937882;28;20059;-49
2023/04/10 10:46:11;;;;;;;14.57;13.07;;;14.20;99.90;;;;;;4970532;28;20402;-51
2023/04/10 10:48:37;;;;;;;13.73;12.18;;;14.20;99.90;;;;;;4971951;28;20055;-47
2023/04/10 10:51:03;;;;;;;14.25;12.65;;;14.20;99.90;;;;;;4972136;28;20049;-38
2023/04/10 10:53:32;;;;;;;13.75;12.35;;;14.20;99.90;;;;;;4972306;28;20065;-44
2023/04/10 10:55:58;;;;;;;13.98;12.57;;;14.20;99.90;;;;;;4971192;28;20077;-37
2023/04/10 10:58:46;;;;;;;13.82;12.40;;;14.20;99.90;;;;;;4955292;28;20501;-39
2023/04/10 11:01:12;;;;;;;13.15;11.85;;;14.30;99.90;;;;;;4981652;28;20121;-48
2023/04/10 11:03:38;;;;;;;13.55;12.15;;;14.20;99.90;;;;;;4988973;28;20459;-38
2023/04/10 11:06:08;;;;;;;12.80;11.50;;;14.30;99.90;;;;;;4981158;28;20394;-40
2023/04/10 11:08:39;;;;;;;13.57;12.18;;;14.40;99.90;;;;;;4973483;28;20054;-42
2023/04/10 11:11:06;;;;;;;13.15;11.85;;;14.30;99.90;;;;;;4973447;28;20572;-46
2023/04/10 11:13:34;;;;;;;13.40;12.10;;;14.40;99.90;;;;;;4971433;28;20085;-44
2023/04/10 11:16:01;;;;;;;14.27;12.85;;;14.30;99.90;;;;;;4954260;28;20133;-43
2023/04/10 11:18:48;;;;;;;13.10;11.90;;;14.30;99.90;;;;;;4969536;28;20054;-46
2023/04/10 11:21:19;;;;;;;12.65;11.35;;;14.20;99.90;;;;;;5053108;28;20053;-46
2023/04/10 11:23:52;;;;;;;12.55;11.25;;;14.30;99.90;;;;;;5032627;28;20535;-45
2023/04/10 11:26:38;;;;;;;;;;;14.40;99.90;;;;;;5053673;28;20257;-46
2023/04/10 11:29:16;;;;;;;12.27;11.05;;;14.50;99.90;;;;;;5036202;28;19979;-38
2023/04/10 11:31:55;;;;;;;13.63;12.18;;;14.60;99.90;;;;;;5054847;28;20403;-51
2023/04/10 11:34:21;;;;;;;13.13;11.82;;;14.80;99.90;;;;;;5060246;28;20052;-50
2023/04/10 11:36:47;;;;;;;12.88;11.68;;;14.90;99.90;;;;;;5061519;28;20051;-43
2023/04/10 11:39:19;;;;;;;12.95;11.65;;;14.90;99.90;;;;;;5061227;28;20411;-48
2023/04/10 11:41:50;;;;;;;13.93;11.48;;;15.10;99.90;;;;;;5049211;28;20044;-48
2023/04/10 11:44:35;;;;;;;11.73;10.63;;;15.20;99.90;;;;;;5039582;28;20044;-47
2023/04/10 11:47:01;;;;;;;12.50;11.30;;;15.30;99.90;;;;;;5056266;28;20289;-42
2023/04/10 11:49:30;;;;;;;11.48;10.27;;;15.40;99.90;;;;;;5056240;28;20041;-40
2023/04/10 11:51:56;;;;;;;12.40;11.20;;;15.50;99.90;;;;;;5069370;28;20119;-43
2023/04/10 11:54:24;;;;;;;12.02;10.82;;;15.60;99.90;;;;;;5051239;28;20054;-43
2023/04/10 11:57:03;;;;;;;12.73;11.43;;;15.40;99.90;;;;;;5076744;28;20091;-43
2023/04/10 11:59:29;;;;;;;11.52;10.43;;;15.20;99.90;;;;;;5066705;28;20063;-50
2023/04/10 12:02:08;;;;;;;12.30;11.00;;;15.40;99.90;;;;;;5077865;28;20043;-41
2023/04/10 12:04:34;;;;;;;11.32;10.23;;;15.40;99.90;;;;;;5059598;28;20048;-45
2023/04/10 12:07:00;;;;;;;12.18;10.82;;;15.40;99.90;;;;;;5076501;28;20055;-40
2023/04/10 12:09:26;;;;;;;12.32;11.13;;;15.40;99.90;;;;;;5066990;28;20513;-42
2023/04/10 12:11:55;;;;;;;11.57;10.38;;;15.20;99.90;;;;;;5056874;28;20047;-41
2023/04/10 12:14:22;;;;;;;11.15;10.05;;;15.10;99.90;;;;;;5056951;28;20119;-50
2023/04/10 12:16:49;;;;;;;12.60;11.05;;;15.00;99.90;;;;;;5055764;28;20354;-48
2023/04/10 12:19:18;;;;;;;15.63;11.43;;;14.90;99.90;;;;;;5056657;28;20084;-48
2023/04/10 12:21:45;;;;;;;11.48;10.38;;;14.90;99.90;;;;;;5062091;28;20046;-49
2023/04/10 12:24:11;;;;;;;12.65;10.77;;;14.90;99.90;;;;;;5077933;28;20573;-46
2023/04/10 12:26:37;;;;;;;12.73;10.05;;;14.80;99.90;;;;;;5045078;28;20048;-43
2023/04/10 12:29:05;;;;;;;11.48;9.95;;;14.80;99.90;;;;;;5058692;28;20064;-43
2023/04/10 12:31:35;;;;;;;10.25;9.25;;;14.70;99.90;;;;;;5076876;28;20039;-46
2023/04/10 12:34:04;;;;;;;11.82;9.88;;;14.60;99.90;;;;;;5056613;28;20040;-42
2023/04/10 12:36:30;;;;;;;10.75;9.65;;;14.50;99.90;;;;;;5037068;28;20052;-42